ESSP/NRK METAR and TAF weather

Enter ICAO airport designator
Station Type Date Time Source
ESSP METAR 2020/09/23 02:20 UTC NOAA

ESSP 230220Z AUTO 03002KT 2600 BR NCD 06/05 Q1004


Station Type Date Time Source
ESSP Decoded METAR 2020/09/23 02:20 UTC NOAA

Norrkoping, Sweden (ESSP) 58-35N 016-09E 0M
Sep 22, 2020 - 10:20 PM EDT / 2020.09.23 0220 UTC
Wind: from the NNE (030 degrees) at 2 MPH (2 KT):0
Visibility: 1 mile(s):0
Weather: mist
Temperature: 42 F (6 C)
Dew Point: 41 F (5 C)
Relative Humidity: 93%
Pressure (altimeter): 29.65 in. Hg (1004 hPa)
ob: ESSP 230220Z AUTO 03002KT 2600 BR NCD 06/05 Q1004
cycle: 2

Station Type Date Time Source
ESSP TAF 2018/01/01 02:31 UTC NOAA

TAF ESSP 010130Z 0102/0206 16002KT 9999 BKN004 PROB40 0102/0106 4000 BR SCT004

Example: see airport list